createdAt,value
2023-03-06T00:00:59.277Z,96167.66
2023-03-06T00:03:28.311Z,96169.22
2023-03-06T00:05:58.937Z,96150.56
2023-03-06T00:08:29.165Z,96160.72
2023-03-06T00:10:57.845Z,96160.72
2023-03-06T00:13:30.657Z,96153.03
2023-03-06T00:16:00.946Z,96155.78
2023-03-06T00:18:29.245Z,96160.97
2023-03-06T00:20:57.267Z,96152.56
2023-03-06T00:23:25.802Z,96154.22
2023-03-06T00:25:53.949Z,96154.13
2023-03-06T00:28:22.321Z,96159.41
2023-03-06T00:30:52.293Z,96151.72
2023-03-06T00:33:20.705Z,96150.91
2023-03-06T00:35:48.975Z,96153.38
2023-03-06T00:38:17.192Z,96144.97
2023-03-06T00:40:45.398Z,96147.66
2023-03-06T00:43:13.809Z,96140.88
2023-03-06T00:45:43.221Z,96141.47
2023-03-06T00:48:12.989Z,96137.19
2023-03-06T00:50:41.140Z,96143.13
2023-03-06T00:53:11.191Z,96133.81
2023-03-06T00:55:39.366Z,96133.09
2023-03-06T00:58:08.016Z,96127.97
2023-03-06T01:00:36.215Z,96127.41
2023-03-06T01:03:04.639Z,96125.94
2023-03-06T01:05:36.645Z,96127.75
2023-03-06T01:08:05.514Z,96116.91
2023-03-06T01:10:33.926Z,96125.50
2023-03-06T01:13:02.008Z,96112.69
2023-03-06T01:15:30.095Z,96119.34
2023-03-06T01:17:59.506Z,96110.03
2023-03-06T01:20:28.518Z,96118.81
2023-03-06T01:22:58.148Z,96108.47
2023-03-06T01:25:27.980Z,96110.28
2023-03-06T01:27:56.295Z,96107.25
2023-03-06T01:30:24.522Z,96109.56
2023-03-06T01:32:52.718Z,96108.00
2023-03-06T01:35:20.768Z,96105.25
2023-03-06T01:37:48.910Z,96096.50
2023-03-06T01:40:18.733Z,96098.75
2023-03-06T01:42:49.298Z,96094.28
2023-03-06T01:45:54.843Z,96096.03
2023-03-06T01:48:25.500Z,96101.88
2023-03-06T01:50:54.868Z,96093.47
2023-03-06T01:53:23.167Z,96100.63
2023-03-06T01:55:52.974Z,96099.88
2023-03-06T01:58:21.504Z,96089.63
2023-03-06T02:00:49.954Z,96087.25
2023-03-06T02:03:22.944Z,96081.38
2023-03-06T02:05:51.484Z,96084.50
2023-03-06T02:08:21.906Z,96086.13
2023-03-06T02:10:59.807Z,96087.78
2023-03-06T02:13:28.248Z,96075.16
2023-03-06T02:15:56.902Z,96077.72
2023-03-06T02:18:25.244Z,96073.44
2023-03-06T02:20:56.282Z,96069.66
2023-03-06T02:23:33.502Z,96071.13
2023-03-06T02:26:03.403Z,96070.13
2023-03-06T02:28:31.820Z,96059.72
2023-03-06T02:31:00.359Z,96056.34
2023-03-06T02:33:30.303Z,96059.97
2023-03-06T02:36:01.357Z,96055.13
2023-03-06T02:38:33.168Z,96055.50
2023-03-06T02:41:07.929Z,96053.28
2023-03-06T02:43:39.774Z,96050.53
2023-03-06T02:46:08.722Z,96054.19
2023-03-06T02:48:36.847Z,96048.00
2023-03-06T02:51:05.358Z,96038.84
2023-03-06T02:53:33.729Z,96040.66
2023-03-06T02:56:02.079Z,96029.72
2023-03-06T02:58:31.517Z,96027.53
2023-03-06T03:01:00.897Z,96035.75
2023-03-06T03:03:30.437Z,96025.94
2023-03-06T03:05:59.511Z,96024.78
2023-03-06T03:08:31.127Z,96024.13
2023-03-06T03:11:02.776Z,96021.22
2023-03-06T03:13:39.408Z,96025.94
2023-03-06T03:16:15.551Z,96027.25
2023-03-06T03:18:47.872Z,96025.09
2023-03-06T03:21:19.125Z,96024.59
2023-03-06T03:23:49.253Z,96018.97
2023-03-06T03:26:19.627Z,96019.47
2023-03-06T03:29:15.552Z,96017.22
2023-03-06T03:31:44.115Z,96014.31
2023-03-06T03:34:12.175Z,96016.53
2023-03-06T03:36:41.943Z,96016.22
2023-03-06T03:39:11.852Z,96014.22
2023-03-06T03:41:40.557Z,96013.50
2023-03-06T03:44:10.475Z,96010.94
2023-03-06T03:46:41.116Z,96013.91
2023-03-06T03:49:14.873Z,96017.38
2023-03-06T03:51:45.536Z,96006.03
2023-03-06T03:54:13.758Z,96001.69
2023-03-06T03:56:46.130Z,96004.25
2023-03-06T03:59:21.036Z,96006.41
2023-03-06T04:02:13.528Z,96004.22
2023-03-06T04:04:53.288Z,96000.84
2023-03-06T04:07:21.733Z,96008.13
2023-03-06T04:09:50.600Z,96004.69
2023-03-06T04:12:19.488Z,95991.22
2023-03-06T04:14:48.456Z,95991.97
2023-03-06T04:17:18.223Z,95990.06
2023-03-06T04:19:46.280Z,95985.28
2023-03-06T04:22:14.699Z,95984.34
2023-03-06T04:24:43.495Z,95980.59
2023-03-06T04:27:12.023Z,95978.41
2023-03-06T04:29:40.209Z,95974.66
2023-03-06T04:32:08.765Z,95969.47
2023-03-06T04:34:38.454Z,95972.41
2023-03-06T04:37:07.889Z,95972.28
2023-03-06T04:39:35.923Z,95966.56
2023-03-06T04:42:04.195Z,95964.59
2023-03-06T04:44:32.273Z,95965.16
2023-03-06T04:47:00.638Z,95962.16
2023-03-06T04:49:28.598Z,95965.69
2023-03-06T04:51:58.095Z,95956.28
2023-03-06T04:54:26.373Z,95960.09
2023-03-06T04:56:55.152Z,95957.38
2023-03-06T04:59:23.166Z,95954.56
2023-03-06T05:01:51.412Z,95946.50
2023-03-06T05:04:19.508Z,95949.06
2023-03-06T05:06:48.029Z,95950.03
2023-03-06T05:09:17.456Z,95949.75
2023-03-06T05:11:45.670Z,95947.59
2023-03-06T05:14:14.314Z,95950.03
2023-03-06T05:16:42.357Z,95950.59
2023-03-06T05:19:10.378Z,95948.56
2023-03-06T05:21:38.595Z,95948.97
2023-03-06T05:24:07.114Z,95951.81
2023-03-06T05:26:36.787Z,95947.91
2023-03-06T05:29:05.143Z,95942.81
2023-03-06T05:31:33.544Z,95948.94
2023-03-06T05:34:01.621Z,95951.50
2023-03-06T05:36:30.064Z,95949.94
2023-03-06T05:38:58.176Z,95949.06
2023-03-06T05:41:26.211Z,95946.00
2023-03-06T05:43:57.044Z,95951.56
2023-03-06T05:46:25.425Z,95943.38
2023-03-06T05:48:57.574Z,95949.56
2023-03-06T05:51:26.745Z,95947.38
2023-03-06T05:53:55.081Z,95945.66
2023-03-06T05:56:23.532Z,95948.41
2023-03-06T05:58:51.768Z,95950.72
2023-03-06T06:01:22.805Z,95943.69
2023-03-06T06:03:51.084Z,95941.22
2023-03-06T06:06:19.409Z,95942.50
2023-03-06T06:08:47.529Z,95939.03
2023-03-06T06:11:15.742Z,95939.84
2023-03-06T06:13:44.053Z,95936.69
2023-03-06T06:16:15.765Z,95941.41
2023-03-06T06:18:45.535Z,95942.13
2023-03-06T06:21:16.014Z,95945.13
2023-03-06T06:23:44.697Z,95945.84
2023-03-06T06:26:12.763Z,95939.00
2023-03-06T06:28:41.246Z,95942.66
2023-03-06T06:31:10.573Z,95938.97
2023-03-06T06:33:38.834Z,95947.22
2023-03-06T06:36:16.370Z,95940.59
2023-03-06T06:38:44.859Z,95940.41
2023-03-06T06:44:01.984Z,95941.59
2023-03-06T06:47:20.422Z,95941.31
2023-03-06T06:49:18.843Z,95936.34
2023-03-06T06:51:48.892Z,95944.97
2023-03-06T06:54:18.734Z,95940.28
2023-03-06T06:56:47.426Z,95944.00
2023-03-06T06:59:17.395Z,95937.16
2023-03-06T07:01:46.262Z,95943.72
2023-03-06T07:04:15.340Z,95936.34
2023-03-06T07:06:44.127Z,95931.72
2023-03-06T07:09:15.119Z,95941.38
2023-03-06T07:11:43.171Z,95936.97
2023-03-06T07:14:11.486Z,95928.44
2023-03-06T07:16:39.863Z,95933.56
2023-03-06T07:19:09.141Z,95934.50
2023-03-06T07:21:37.542Z,95935.38
2023-03-06T07:24:06.154Z,95939.81
2023-03-06T07:26:35.867Z,95934.00
2023-03-06T07:29:04.885Z,95940.84
2023-03-06T07:31:33.447Z,95935.50
2023-03-06T07:34:04.723Z,95932.25
2023-03-06T07:36:34.316Z,95935.75
2023-03-06T07:39:02.764Z,95933.63
2023-03-06T07:41:30.844Z,95933.22
2023-03-06T07:44:00.375Z,95933.59
2023-03-06T07:46:28.825Z,95933.16
2023-03-06T07:48:58.398Z,95926.75
2023-03-06T07:51:26.537Z,95924.19
2023-03-06T07:53:54.960Z,95927.38
2023-03-06T07:56:23.115Z,95930.50
2023-03-06T07:58:51.302Z,95924.63
2023-03-06T08:01:24.396Z,95929.06
2023-03-06T08:03:53.581Z,95942.53
2023-03-06T08:06:24.914Z,95936.81
2023-03-06T08:08:55.444Z,95941.13
2023-03-06T08:11:25.655Z,95934.47
2023-03-06T08:13:55.192Z,95934.88
2023-03-06T08:16:26.277Z,95928.03
2023-03-06T08:18:54.920Z,95930.03
2023-03-06T08:21:25.473Z,95935.03
2023-03-06T08:23:53.977Z,95928.84
2023-03-06T08:26:24.506Z,95933.63
2023-03-06T08:28:53.277Z,95922.16
2023-03-06T08:31:31.967Z,95924.34
2023-03-06T08:34:02.344Z,95911.69
2023-03-06T08:36:31.556Z,95919.66
2023-03-06T08:39:00.409Z,95918.81
2023-03-06T08:41:28.758Z,95934.72
2023-03-06T08:43:57.334Z,95929.75
2023-03-06T08:46:27.958Z,95934.75
2023-03-06T08:48:58.548Z,95936.28
2023-03-06T08:51:28.152Z,95934.25
2023-03-06T08:53:57.165Z,95941.25
2023-03-06T08:56:27.778Z,95937.19
2023-03-06T08:58:57.276Z,95935.50
2023-03-06T09:01:27.543Z,95938.66
2023-03-06T09:03:59.001Z,95929.59
2023-03-06T09:06:28.928Z,95940.53
2023-03-06T09:08:57.552Z,95933.25
2023-03-06T09:11:27.410Z,95936.44
2023-03-06T09:13:56.301Z,95936.25
2023-03-06T09:16:25.288Z,95931.25
2023-03-06T09:18:54.387Z,95938.16
2023-03-06T09:21:25.271Z,95925.59
2023-03-06T09:23:53.418Z,95930.25
2023-03-06T09:26:27.999Z,95924.13
2023-03-06T09:29:01.206Z,95920.09
2023-03-06T09:31:30.288Z,95915.28
2023-03-06T09:33:58.657Z,95926.94
2023-03-06T09:36:28.079Z,95925.31
2023-03-06T09:38:56.717Z,95919.78
2023-03-06T09:41:30.154Z,95924.28
2023-03-06T09:44:04.974Z,95919.31
2023-03-06T09:46:48.747Z,95922.34
2023-03-06T09:49:35.461Z,95923.53
2023-03-06T09:52:16.382Z,95915.88
2023-03-06T09:54:46.561Z,95912.41
2023-03-06T09:57:21.164Z,95915.44
2023-03-06T09:59:54.424Z,95909.81
2023-03-06T10:02:33.001Z,95902.97
2023-03-06T10:05:04.281Z,95895.19
2023-03-06T10:07:45.681Z,95904.97
2023-03-06T10:10:20.858Z,95901.44
2023-03-06T10:12:59.397Z,95897.84
2023-03-06T10:15:31.561Z,95899.66
2023-03-06T10:17:59.969Z,95896.13
2023-03-06T10:20:29.881Z,95886.53
2023-03-06T10:23:22.169Z,95887.66
2023-03-06T10:25:56.291Z,95884.53
2023-03-06T10:28:30.481Z,95890.91
2023-03-06T10:31:04.028Z,95888.25
2023-03-06T10:33:46.804Z,95880.44
2023-03-06T10:36:17.947Z,95882.38
2023-03-06T10:38:49.563Z,95880.63
2023-03-06T10:41:23.749Z,95879.06
2023-03-06T10:44:23.650Z,95879.34
2023-03-06T10:46:54.427Z,95879.50
2023-03-06T10:49:35.166Z,95879.75
2023-03-06T10:52:06.979Z,95876.38
2023-03-06T10:54:39.117Z,95875.59
2023-03-06T10:57:29.559Z,95872.28
2023-03-06T10:59:59.888Z,95869.09
2023-03-06T11:02:31.744Z,95869.00
2023-03-06T11:05:03.454Z,95876.47
2023-03-06T11:07:32.689Z,95871.06
2023-03-06T11:10:16.763Z,95865.81
2023-03-06T11:12:57.190Z,95862.03
2023-03-06T11:15:26.559Z,95861.84
2023-03-06T11:18:00.578Z,95858.28
2023-03-06T11:20:48.554Z,95861.63
2023-03-06T11:23:22.976Z,95857.22
2023-03-06T11:25:57.765Z,95857.56
2023-03-06T11:28:29.051Z,95854.69
2023-03-06T11:31:03.615Z,95847.25
2023-03-06T11:33:38.220Z,95854.38
2023-03-06T11:36:14.966Z,95856.78
2023-03-06T11:38:49.107Z,95848.53
2023-03-06T11:41:27.252Z,95842.41
2023-03-06T11:44:02.214Z,95851.25
2023-03-06T11:46:37.657Z,95848.13
2023-03-06T11:49:18.803Z,95835.88
2023-03-06T11:51:52.832Z,95839.94
2023-03-06T11:54:20.922Z,95825.78
2023-03-06T11:56:56.347Z,95834.56
2023-03-06T11:59:35.586Z,95826.38
2023-03-06T12:02:14.367Z,95822.06
2023-03-06T12:04:52.840Z,95815.91
2023-03-06T12:07:30.645Z,95821.16
2023-03-06T12:10:07.194Z,95818.50
2023-03-06T12:13:04.113Z,95811.63
2023-03-06T12:15:46.926Z,95814.56
2023-03-06T12:18:38.948Z,95819.81
2023-03-06T12:21:13.870Z,95813.38
2023-03-06T12:23:55.002Z,95810.50
2023-03-06T12:26:45.239Z,95809.88
2023-03-06T12:29:43.701Z,95804.44
2023-03-06T12:32:26.736Z,95810.09
2023-03-06T12:35:15.408Z,95809.66
2023-03-06T12:37:57.916Z,95803.19
2023-03-06T12:40:51.686Z,95807.19
2023-03-06T12:43:53.326Z,95797.00
2023-03-06T12:46:24.155Z,95802.28
2023-03-06T12:49:03.902Z,95801.81
2023-03-06T12:51:33.462Z,95800.66
2023-03-06T12:54:03.164Z,95799.66
2023-03-06T12:56:34.085Z,95796.81
2023-03-06T12:59:03.116Z,95798.88
2023-03-06T13:01:55.362Z,95802.84
2023-03-06T13:04:47.940Z,95798.16
2023-03-06T13:07:38.867Z,95794.75
2023-03-06T13:10:12.151Z,95804.16
2023-03-06T13:12:49.884Z,95798.88
2023-03-06T13:15:39.287Z,95801.78
2023-03-06T13:18:43.714Z,95804.25
2023-03-06T13:21:45.072Z,95804.81
2023-03-06T13:24:23.246Z,95806.81
2023-03-06T13:26:57.763Z,95803.09
2023-03-06T13:30:02.796Z,95797.34
2023-03-06T13:32:34.747Z,95800.25
2023-03-06T13:35:03.409Z,95804.69
2023-03-06T13:37:39.427Z,95804.94
2023-03-06T13:40:28.675Z,95803.97
2023-03-06T13:43:13.924Z,95804.56
2023-03-06T13:45:43.859Z,95799.38
2023-03-06T13:48:43.006Z,95794.44
2023-03-06T13:51:23.968Z,95778.84
2023-03-06T13:54:31.939Z,95782.22
2023-03-06T13:57:34.113Z,95780.00
2023-03-06T14:00:28.019Z,95784.34
2023-03-06T14:03:15.658Z,95780.59
2023-03-06T14:05:44.861Z,95782.47
2023-03-06T14:08:16.453Z,95776.97
2023-03-06T14:10:46.141Z,95778.97
2023-03-06T14:13:25.499Z,95780.38
2023-03-06T14:15:56.470Z,95773.94
2023-03-06T14:18:47.913Z,95776.28
2023-03-06T14:21:27.740Z,95765.84
2023-03-06T14:24:00.671Z,95772.41
2023-03-06T14:26:32.989Z,95772.75
2023-03-06T14:29:04.139Z,95771.09
2023-03-06T14:31:34.690Z,95765.38
2023-03-06T14:34:05.217Z,95766.66
2023-03-06T14:36:36.972Z,95768.28
2023-03-06T14:39:13.820Z,95764.81
2023-03-06T14:41:42.184Z,95754.53
2023-03-06T14:44:18.054Z,95757.09
2023-03-06T14:46:46.793Z,95763.78
2023-03-06T14:49:15.939Z,95762.72
2023-03-06T14:51:46.446Z,95765.53
2023-03-06T14:54:19.643Z,95762.50
2023-03-06T14:56:49.768Z,95761.09
2023-03-06T14:59:25.914Z,95766.84
2023-03-06T15:02:00.545Z,95767.53
2023-03-06T15:04:36.664Z,95764.13
2023-03-06T15:07:08.580Z,95763.31
2023-03-06T15:09:38.958Z,95760.50
2023-03-06T15:12:09.226Z,95767.16
2023-03-06T15:14:41.968Z,95770.88
2023-03-06T15:17:23.720Z,95771.22
2023-03-06T15:19:54.569Z,95776.06
2023-03-06T15:22:32.414Z,95770.50
2023-03-06T15:25:30.250Z,95772.25
2023-03-06T15:28:01.264Z,95770.00
2023-03-06T15:30:32.527Z,95771.31
2023-03-06T15:33:11.383Z,95773.19
2023-03-06T15:35:39.860Z,95778.91
2023-03-06T15:38:25.468Z,95773.41
2023-03-06T15:40:58.468Z,95782.78
2023-03-06T15:43:27.205Z,95777.53
2023-03-06T15:46:00.055Z,95776.81
2023-03-06T15:48:28.970Z,95777.38
2023-03-06T15:50:57.190Z,95773.97
2023-03-06T15:53:25.477Z,95769.28
2023-03-06T15:55:54.261Z,95766.69
2023-03-06T15:58:26.758Z,95764.41
2023-03-06T16:00:57.386Z,95773.16
2023-03-06T16:03:25.788Z,95768.25
2023-03-06T16:05:53.819Z,95766.03
2023-03-06T16:08:22.090Z,95765.09
2023-03-06T16:10:51.505Z,95766.44
2023-03-06T16:13:26.779Z,95764.84
2023-03-06T16:15:56.977Z,95771.53
2023-03-06T16:18:25.824Z,95765.22
2023-03-06T16:20:54.151Z,95760.28
2023-03-06T16:23:22.820Z,95766.47
2023-03-06T16:25:53.394Z,95760.03
2023-03-06T16:28:21.707Z,95759.72
2023-03-06T16:30:50.091Z,95756.44
2023-03-06T16:33:19.788Z,95761.91
2023-03-06T16:35:48.359Z,95757.94
2023-03-06T16:38:17.615Z,95754.75
2023-03-06T16:40:45.848Z,95749.03
2023-03-06T16:43:16.261Z,95753.84
2023-03-06T16:45:44.960Z,95756.44
2023-03-06T16:48:17.272Z,95750.78
2023-03-06T16:50:47.368Z,95758.72
2023-03-06T16:53:16.135Z,95756.47
2023-03-06T16:55:44.813Z,95758.31
2023-03-06T16:58:13.447Z,95758.19
2023-03-06T17:00:41.697Z,95760.88
2023-03-06T17:03:10.195Z,95762.81
2023-03-06T17:05:39.363Z,95765.50
2023-03-06T17:08:09.034Z,95759.66
2023-03-06T17:10:39.961Z,95758.03
2023-03-06T17:13:08.618Z,95769.31
2023-03-06T17:15:36.749Z,95773.72
2023-03-06T17:18:05.235Z,95771.97
2023-03-06T17:20:33.456Z,95767.03
2023-03-06T17:23:01.630Z,95775.47
2023-03-06T17:25:31.544Z,95790.66
2023-03-06T17:27:59.603Z,95782.03
2023-03-06T17:30:28.098Z,95781.00
2023-03-06T17:32:57.973Z,95777.53
2023-03-06T17:35:26.002Z,95787.66
2023-03-06T17:37:54.213Z,95788.25
2023-03-06T17:40:49.428Z,95789.19
2023-03-06T17:43:17.635Z,95789.81
2023-03-06T17:45:47.423Z,95794.13
2023-03-06T17:48:15.801Z,95799.03
2023-03-06T17:50:45.922Z,95812.59
2023-03-06T17:53:25.026Z,95811.88
2023-03-06T17:55:54.861Z,95814.44
2023-03-06T17:58:22.964Z,95825.00
2023-03-06T18:00:51.334Z,95817.75
2023-03-06T18:03:19.572Z,95823.56
2023-03-06T18:05:48.003Z,95818.66
2023-03-06T18:08:15.995Z,95823.28
2023-03-06T18:10:44.681Z,95819.38
2023-03-06T18:13:14.141Z,95826.47
2023-03-06T18:15:43.103Z,95822.25
2023-03-06T18:18:11.363Z,95819.69
2023-03-06T18:20:42.210Z,95819.69
2023-03-06T18:23:10.587Z,95822.16
2023-03-06T18:25:38.654Z,95818.88
2023-03-06T18:28:06.838Z,95821.44
2023-03-06T18:30:39.120Z,95819.16
2023-03-06T18:33:07.296Z,95812.38
2023-03-06T18:35:36.080Z,95816.69
2023-03-06T18:38:04.365Z,95812.50
2023-03-06T18:40:32.736Z,95811.66
2023-03-06T18:43:00.712Z,95815.06
2023-03-06T18:45:28.824Z,95815.16
2023-03-06T18:47:58.361Z,95818.75
2023-03-06T18:50:26.379Z,95818.13
2023-03-06T18:52:54.902Z,95817.31
2023-03-06T18:55:23.196Z,95819.06
2023-03-06T18:57:51.474Z,95820.06
2023-03-06T19:00:20.840Z,95821.00
2023-03-06T19:02:49.005Z,95820.16
2023-03-06T19:05:18.637Z,95825.28
2023-03-06T19:07:46.950Z,95823.66
2023-03-06T19:10:15.725Z,95822.94
2023-03-06T19:12:43.789Z,95833.19
2023-03-06T19:15:12.012Z,95832.50
2023-03-06T19:17:40.338Z,95829.09
2023-03-06T19:20:09.742Z,95830.03
2023-03-06T19:22:39.413Z,95831.84
2023-03-06T19:25:09.041Z,95828.47
2023-03-06T19:27:39.575Z,95826.63
2023-03-06T19:30:09.450Z,95839.44
2023-03-06T19:32:37.837Z,95836.16
2023-03-06T19:35:06.979Z,95836.97
2023-03-06T19:37:35.303Z,95833.78
2023-03-06T19:40:04.875Z,95837.81
2023-03-06T19:42:33.112Z,95840.28
2023-03-06T19:45:01.531Z,95835.97
2023-03-06T19:47:29.466Z,95839.25
2023-03-06T19:49:57.712Z,95834.13
2023-03-06T19:52:26.172Z,95830.63
2023-03-06T19:54:54.579Z,95830.44
2023-03-06T19:57:24.004Z,95832.88
2023-03-06T19:59:52.613Z,95827.97
2023-03-06T20:02:26.501Z,95833.00
2023-03-06T20:04:55.535Z,95834.81
2023-03-06T20:07:24.009Z,95833.00
2023-03-06T20:09:52.394Z,95834.72
2023-03-06T20:12:20.423Z,95833.91
2023-03-06T20:14:50.926Z,95845.59
2023-03-06T20:17:18.921Z,95843.03
2023-03-06T20:19:47.579Z,95837.19
2023-03-06T20:22:15.677Z,95838.03
2023-03-06T20:24:43.633Z,95845.72
2023-03-06T20:27:11.933Z,95842.31
2023-03-06T20:29:43.408Z,95844.88
2023-03-06T20:32:14.463Z,95838.84
2023-03-06T20:34:42.640Z,95839.84
2023-03-06T20:37:11.390Z,95839.13
2023-03-06T20:39:39.439Z,95842.59
2023-03-06T20:42:07.461Z,95839.25
2023-03-06T20:44:36.232Z,95839.03
2023-03-06T20:47:04.322Z,95839.66
2023-03-06T20:49:33.878Z,95837.00
2023-03-06T20:52:02.044Z,95839.47
2023-03-06T20:54:30.265Z,95835.34
2023-03-06T20:56:58.323Z,95834.44
2023-03-06T20:59:26.700Z,95831.34
2023-03-06T21:01:54.931Z,95823.66
2023-03-06T21:04:23.201Z,95826.13
2023-03-06T21:06:54.758Z,95822.00
2023-03-06T21:09:23.055Z,95826.53
2023-03-06T21:11:51.951Z,95828.19
2023-03-06T21:14:19.933Z,95820.38
2023-03-06T21:16:47.929Z,95828.06
2023-03-06T21:19:15.958Z,95816.28
2023-03-06T21:21:43.954Z,95825.00
2023-03-06T21:24:13.439Z,95824.38
2023-03-06T21:26:41.503Z,95813.28
2023-03-06T21:29:09.955Z,95814.13
2023-03-06T21:31:38.743Z,95816.88
2023-03-06T21:34:07.060Z,95813.59
2023-03-06T21:36:35.109Z,95811.16
2023-03-06T21:39:06.242Z,95813.81
2023-03-06T21:41:37.978Z,95809.50
2023-03-06T21:44:07.765Z,95804.38
2023-03-06T21:46:36.452Z,95812.75
2023-03-06T21:49:06.001Z,95808.34
2023-03-06T21:51:34.575Z,95803.97
2023-03-06T21:54:03.864Z,95800.78
2023-03-06T21:56:33.403Z,95796.69
2023-03-06T21:59:03.311Z,95792.50
2023-03-06T22:01:31.669Z,95789.00
2023-03-06T22:04:00.964Z,95790.66
2023-03-06T22:06:31.363Z,95785.38
2023-03-06T22:09:00.838Z,95787.44
2023-03-06T22:11:31.418Z,95783.22
2023-03-06T22:13:59.752Z,95788.16
2023-03-06T22:16:29.533Z,95785.47
2023-03-06T22:18:57.741Z,95777.00
2023-03-06T22:21:26.462Z,95782.91
2023-03-06T22:23:57.366Z,95780.56
2023-03-06T22:26:26.847Z,95772.66
2023-03-06T22:28:55.098Z,95777.19
2023-03-06T22:31:24.863Z,95776.78
2023-03-06T22:33:55.522Z,95767.06
2023-03-06T22:36:25.021Z,95765.13
2023-03-06T22:38:56.364Z,95767.69
2023-03-06T22:41:50.212Z,95763.97
2023-03-06T22:44:20.760Z,95757.44
2023-03-06T22:46:48.961Z,95758.56
2023-03-06T22:49:19.117Z,95761.22
2023-03-06T22:51:47.411Z,95760.69
2023-03-06T22:54:15.554Z,95764.97
2023-03-06T22:56:43.623Z,95765.78
2023-03-06T22:59:12.344Z,95761.19
2023-03-06T23:01:40.609Z,95765.81
2023-03-06T23:04:11.447Z,95765.81
2023-03-06T23:06:43.085Z,95755.47
2023-03-06T23:09:16.006Z,95751.69
2023-03-06T23:12:03.206Z,95753.13
2023-03-06T23:14:51.652Z,95743.09
2023-03-06T23:17:38.282Z,95756.81
2023-03-06T23:20:24.876Z,95759.09
2023-03-06T23:23:12.891Z,95752.22
2023-03-06T23:25:43.956Z,95753.13
2023-03-06T23:28:12.530Z,95758.38
2023-03-06T23:30:40.953Z,95750.47
2023-03-06T23:33:09.979Z,95750.03
2023-03-06T23:35:39.747Z,95758.81
2023-03-06T23:38:07.826Z,95758.44
2023-03-06T23:40:39.721Z,95763.09
2023-03-06T23:43:07.754Z,95750.22
2023-03-06T23:45:35.949Z,95743.88
2023-03-06T23:48:06.134Z,95747.84
2023-03-06T23:50:34.232Z,95748.84
2023-03-06T23:53:02.324Z,95747.72
2023-03-06T23:55:30.242Z,95743.69
2023-03-06T23:57:59.611Z,95740.75
